createdAt,value
2022-09-27T02:51:25.713Z,13.50
2022-09-27T02:54:10.919Z,16.80
2022-09-27T02:56:57.289Z,13.63
2022-09-27T02:59:36.840Z,12.43
2022-09-27T03:02:13.548Z,15.43
2022-09-27T03:04:48.819Z,9.98
2022-09-27T03:07:18.466Z,13.77
2022-09-27T03:09:49.281Z,11.68
2022-09-27T03:12:26.349Z,12.50
2022-09-27T03:14:56.408Z,12.30
2022-09-27T03:17:25.208Z,12.70
2022-09-27T03:19:54.956Z,13.05
2022-09-27T03:22:23.480Z,12.77
2022-09-27T03:24:51.671Z,15.07
2022-09-27T03:27:20.123Z,16.20
2022-09-27T03:29:48.349Z,10.30
2022-09-27T03:32:16.688Z,10.55
2022-09-27T03:34:45.105Z,12.18
2022-09-27T03:37:14.729Z,9.05
2022-09-27T03:39:42.987Z,8.98
2022-09-27T03:42:11.291Z,14.80
2022-09-27T03:44:39.529Z,10.88
2022-09-27T03:47:07.769Z,15.73
2022-09-27T03:49:35.928Z,10.00
2022-09-27T03:52:04.205Z,9.13
2022-09-27T03:54:34.056Z,8.68
2022-09-27T03:57:02.295Z,8.50
2022-09-27T03:59:30.476Z,9.05
2022-09-27T04:02:04.997Z,6.90
2022-09-27T04:04:33.574Z,7.20
2022-09-27T04:07:01.997Z,8.20
2022-09-27T04:09:30.478Z,9.48
2022-09-27T04:12:00.460Z,7.82
2022-09-27T04:14:29.040Z,8.13
2022-09-27T04:16:57.273Z,7.07
2022-09-27T04:19:25.680Z,7.47
2022-09-27T04:21:53.820Z,13.18
2022-09-27T04:24:22.091Z,7.07
2022-09-27T04:26:50.465Z,6.65
2022-09-27T04:29:20.353Z,8.93
2022-09-27T04:31:48.766Z,8.13
2022-09-27T04:34:17.300Z,8.23
2022-09-27T04:39:12.817Z,30.30
2022-09-27T04:41:41.544Z,18.20
2022-09-27T04:44:10.042Z,18.58
2022-09-27T04:46:39.815Z,11.63
2022-09-27T04:49:08.081Z,14.13
2022-09-27T04:51:37.055Z,7.28
2022-09-27T04:54:05.638Z,7.55
2022-09-27T04:56:36.088Z,11.95
2022-09-27T04:59:09.808Z,10.40
2022-09-27T05:01:40.805Z,11.05
2022-09-27T05:04:10.417Z,10.27
2022-09-27T05:06:38.956Z,9.82
2022-09-27T05:09:07.163Z,10.98
2022-09-27T05:11:38.236Z,10.80
2022-09-27T05:14:06.669Z,8.38
2022-09-27T05:16:36.253Z,8.15
2022-09-27T05:19:06.213Z,8.00
2022-09-27T05:21:34.441Z,9.30
2022-09-27T05:24:03.144Z,7.95
2022-09-27T05:26:31.385Z,12.90
2022-09-27T05:28:59.625Z,7.82
2022-09-27T05:31:28.056Z,9.60
2022-09-27T05:33:56.448Z,13.13
2022-09-27T05:36:26.195Z,14.73
2022-09-27T05:38:54.776Z,13.07
2022-09-27T05:41:23.421Z,9.93
2022-09-27T05:43:52.555Z,8.93
2022-09-27T05:46:20.863Z,8.45
2022-09-27T05:48:49.195Z,8.70
2022-09-27T05:51:19.391Z,8.77
2022-09-27T05:53:49.169Z,10.80
2022-09-27T05:56:17.612Z,9.55
2022-09-27T05:58:46.131Z,6.70
2022-09-27T06:01:14.507Z,7.55
2022-09-27T06:03:43.103Z,7.05
2022-09-27T06:06:12.321Z,7.88
2022-09-27T06:08:40.840Z,7.70
2022-09-27T06:11:12.943Z,6.20
2022-09-27T06:13:41.787Z,7.50
2022-09-27T06:16:12.803Z,8.88
2022-09-27T06:18:41.079Z,11.55
2022-09-27T06:21:09.281Z,5.70
2022-09-27T06:23:37.691Z,10.07
2022-09-27T06:26:07.995Z,6.93
2022-09-27T06:28:37.693Z,6.63
2022-09-27T06:31:08.425Z,7.85
2022-09-27T06:33:37.188Z,7.05
2022-09-27T06:36:07.307Z,7.78
2022-09-27T06:38:36.321Z,5.43
2022-09-27T06:41:06.637Z,4.45
2022-09-27T06:43:35.411Z,5.43
2022-09-27T06:46:06.144Z,5.05
2022-09-27T06:48:36.240Z,4.90
2022-09-27T06:51:04.823Z,7.88
2022-09-27T06:53:33.608Z,7.03
2022-09-27T06:56:02.894Z,5.80
2022-09-27T06:58:49.020Z,5.10
2022-09-27T07:01:19.066Z,6.00
2022-09-27T07:03:51.450Z,5.38
2022-09-27T07:06:22.992Z,4.30
2022-09-27T07:08:53.273Z,9.23
2022-09-27T07:11:23.464Z,4.68
2022-09-27T07:13:52.123Z,7.57
2022-09-27T07:16:22.993Z,4.10
2022-09-27T07:18:51.760Z,4.75
2022-09-27T07:21:19.999Z,3.40
2022-09-27T07:23:48.621Z,2.92
2022-09-27T07:26:16.803Z,3.10
2022-09-27T07:28:46.093Z,3.85
2022-09-27T07:31:14.868Z,3.35
2022-09-27T07:33:44.676Z,5.80
2022-09-27T07:36:14.508Z,4.47
2022-09-27T07:38:42.922Z,3.20
2022-09-27T07:41:13.300Z,3.03
2022-09-27T07:43:41.542Z,5.80
2022-09-27T07:46:11.224Z,3.63
2022-09-27T07:48:39.700Z,2.58
2022-09-27T07:51:11.244Z,5.63
2022-09-27T07:53:40.787Z,3.25
2022-09-27T07:56:09.733Z,2.40
2022-09-27T07:58:37.962Z,2.45
2022-09-27T08:01:06.235Z,2.45
2022-09-27T08:03:35.012Z,2.65
2022-09-27T08:06:05.296Z,3.15
2022-09-27T08:08:34.915Z,2.33
2022-09-27T08:11:03.279Z,2.25
2022-09-27T08:13:31.636Z,3.67
2022-09-27T08:16:03.804Z,2.58
2022-09-27T08:18:32.171Z,3.47
2022-09-27T08:21:01.550Z,4.20
2022-09-27T08:23:30.185Z,2.35
2022-09-27T08:25:59.825Z,2.30
2022-09-27T08:28:28.413Z,2.60
2022-09-27T08:30:59.318Z,6.82
2022-09-27T08:33:32.333Z,2.45
2022-09-27T08:36:01.918Z,2.05
2022-09-27T08:38:30.100Z,1.30
2022-09-27T08:41:07.708Z,1.95
2022-09-27T08:43:40.760Z,1.50
2022-09-27T08:46:17.340Z,1.70
2022-09-27T08:48:48.210Z,2.40
2022-09-27T08:51:17.724Z,2.08
2022-09-27T08:53:53.554Z,2.05
2022-09-27T08:56:24.248Z,2.50
2022-09-27T08:58:58.011Z,2.30
2022-09-27T09:01:29.191Z,1.92
2022-09-27T09:04:01.715Z,2.47
2022-09-27T09:06:38.192Z,1.95
2022-09-27T09:09:19.906Z,4.22
2022-09-27T09:12:19.532Z,4.55
2022-09-27T09:15:03.700Z,3.08
2022-09-27T09:17:46.699Z,2.80
2022-09-27T09:20:32.178Z,2.72
2022-09-27T09:23:22.786Z,1.92
2022-09-27T09:25:58.854Z,1.98
2022-09-27T09:28:41.356Z,1.70
2022-09-27T09:31:16.577Z,1.35
2022-09-27T09:33:50.556Z,1.60
2022-09-27T09:36:26.391Z,2.17
2022-09-27T09:38:57.803Z,3.38
2022-09-27T09:41:31.082Z,1.40
2022-09-27T09:44:07.238Z,3.65
2022-09-27T09:46:42.295Z,1.80
2022-09-27T09:49:19.701Z,1.35
2022-09-27T09:51:52.881Z,1.85
2022-09-27T09:54:26.248Z,1.33
2022-09-27T09:57:04.485Z,1.35
2022-09-27T09:59:43.022Z,1.25
2022-09-27T10:02:26.717Z,1.48
2022-09-27T10:04:55.312Z,1.27
2022-09-27T10:07:25.016Z,2.28
2022-09-27T10:09:55.919Z,1.10
2022-09-27T10:12:24.228Z,1.75
2022-09-27T10:14:56.785Z,1.30
2022-09-27T10:17:29.102Z,1.30
2022-09-27T10:19:59.865Z,1.73
2022-09-27T10:22:32.906Z,1.30
2022-09-27T10:25:03.477Z,3.78
2022-09-27T10:27:41.377Z,1.35
2022-09-27T10:30:29.206Z,1.13
2022-09-27T10:33:01.341Z,1.50
2022-09-27T10:35:38.017Z,1.70
2022-09-27T10:38:22.793Z,1.38
2022-09-27T10:40:55.413Z,2.45
2022-09-27T10:43:32.816Z,1.20
2022-09-27T10:46:12.051Z,1.20
2022-09-27T10:48:42.129Z,1.17
2022-09-27T10:51:25.782Z,1.30
2022-09-27T10:53:58.727Z,1.92
2022-09-27T10:56:30.994Z,13.32
2022-09-27T10:59:00.511Z,6.38
2022-09-27T11:01:42.140Z,3.40
2022-09-27T11:04:21.617Z,4.25
2022-09-27T11:06:50.641Z,2.10
2022-09-27T11:09:24.219Z,3.05
2022-09-27T11:11:52.885Z,1.98
2022-09-27T11:14:23.323Z,1.50
2022-09-27T11:17:27.320Z,1.60
2022-09-27T11:20:09.563Z,0.80
2022-09-27T11:23:16.032Z,1.35
2022-09-27T11:25:57.557Z,0.73
2022-09-27T11:28:42.057Z,2.95
2022-09-27T11:50:13.773Z,9.87
